sensor_id;sensor_type;location;lat;lon;timestamp;P1;durP1;ratioP1;P2;durP2;ratioP2
44746;SDS011;30472;49.490;10.972;2023-10-09T00:00:09;17.20;;;10.73;;
44746;SDS011;30472;49.490;10.972;2023-10-09T00:03:01;13.83;;;11.07;;
44746;SDS011;30472;49.490;10.972;2023-10-09T00:05:28;14.23;;;10.03;;
44746;SDS011;30472;49.490;10.972;2023-10-09T00:08:13;19.97;;;11.70;;
44746;SDS011;30472;49.490;10.972;2023-10-09T00:10:50;13.70;;;10.70;;
44746;SDS011;30472;49.490;10.972;2023-10-09T00:13:25;16.67;;;10.87;;
44746;SDS011;30472;49.490;10.972;2023-10-09T00:16:05;16.27;;;12.00;;
44746;SDS011;30472;49.490;10.972;2023-10-09T00:18:38;16.23;;;10.77;;
44746;SDS011;30472;49.490;10.972;2023-10-09T00:21:04;14.77;;;10.20;;
44746;SDS011;30472;49.490;10.972;2023-10-09T00:23:37;12.63;;;10.63;;
44746;SDS011;30472;49.490;10.972;2023-10-09T00:26:06;15.37;;;10.20;;
44746;SDS011;30472;49.490;10.972;2023-10-09T00:28:41;12.70;;;10.23;;
44746;SDS011;30472;49.490;10.972;2023-10-09T00:31:12;13.07;;;10.13;;
44746;SDS011;30472;49.490;10.972;2023-10-09T00:33:51;14.63;;;10.23;;
44746;SDS011;30472;49.490;10.972;2023-10-09T00:36:17;15.30;;;10.60;;
44746;SDS011;30472;49.490;10.972;2023-10-09T00:38:52;11.50;;;9.47;;
44746;SDS011;30472;49.490;10.972;2023-10-09T00:41:19;18.37;;;10.93;;
44746;SDS011;30472;49.490;10.972;2023-10-09T00:43:45;14.10;;;11.13;;
44746;SDS011;30472;49.490;10.972;2023-10-09T00:46:14;17.00;;;10.90;;
44746;SDS011;30472;49.490;10.972;2023-10-09T00:48:48;14.60;;;9.80;;
44746;SDS011;30472;49.490;10.972;2023-10-09T00:51:15;15.30;;;11.20;;
44746;SDS011;30472;49.490;10.972;2023-10-09T00:53:47;13.10;;;10.10;;
44746;SDS011;30472;49.490;10.972;2023-10-09T00:56:16;18.40;;;10.80;;
44746;SDS011;30472;49.490;10.972;2023-10-09T00:58:50;15.93;;;10.50;;
44746;SDS011;30472;49.490;10.972;2023-10-09T01:01:24;20.03;;;11.67;;
44746;SDS011;30472;49.490;10.972;2023-10-09T01:03:59;16.33;;;11.17;;
44746;SDS011;30472;49.490;10.972;2023-10-09T01:06:40;13.87;;;10.70;;
44746;SDS011;30472;49.490;10.972;2023-10-09T01:09:12;17.23;;;10.50;;
44746;SDS011;30472;49.490;10.972;2023-10-09T01:11:42;14.83;;;10.90;;
44746;SDS011;30472;49.490;10.972;2023-10-09T01:14:24;17.00;;;9.47;;
44746;SDS011;30472;49.490;10.972;2023-10-09T01:16:49;13.60;;;10.00;;
44746;SDS011;30472;49.490;10.972;2023-10-09T01:19:19;17.30;;;10.20;;
44746;SDS011;30472;49.490;10.972;2023-10-09T01:21:48;16.50;;;10.70;;
44746;SDS011;30472;49.490;10.972;2023-10-09T01:24:17;15.00;;;9.83;;
44746;SDS011;30472;49.490;10.972;2023-10-09T01:26:45;16.03;;;10.03;;
44746;SDS011;30472;49.490;10.972;2023-10-09T01:29:12;14.07;;;10.43;;
44746;SDS011;30472;49.490;10.972;2023-10-09T01:31:40;14.83;;;10.00;;
44746;SDS011;30472;49.490;10.972;2023-10-09T01:34:33;15.67;;;9.43;;
44746;SDS011;30472;49.490;10.972;2023-10-09T01:37:18;13.90;;;10.50;;
44746;SDS011;30472;49.490;10.972;2023-10-09T01:39:48;15.93;;;10.33;;
44746;SDS011;30472;49.490;10.972;2023-10-09T01:42:15;15.50;;;10.03;;
44746;SDS011;30472;49.490;10.972;2023-10-09T01:44:49;13.93;;;9.83;;
44746;SDS011;30472;49.490;10.972;2023-10-09T01:47:15;13.30;;;9.97;;
44746;SDS011;30472;49.490;10.972;2023-10-09T01:49:43;13.97;;;9.57;;
44746;SDS011;30472;49.490;10.972;2023-10-09T01:52:14;12.37;;;10.30;;
44746;SDS011;30472;49.490;10.972;2023-10-09T01:54:47;14.90;;;10.33;;
44746;SDS011;30472;49.490;10.972;2023-10-09T01:57:17;15.03;;;10.63;;
44746;SDS011;30472;49.490;10.972;2023-10-09T01:59:48;13.77;;;9.97;;
44746;SDS011;30472;49.490;10.972;2023-10-09T02:02:18;12.93;;;9.50;;
44746;SDS011;30472;49.490;10.972;2023-10-09T02:04:53;16.33;;;9.90;;
44746;SDS011;30472;49.490;10.972;2023-10-09T02:07:30;13.30;;;9.10;;
44746;SDS011;30472;49.490;10.972;2023-10-09T02:10:05;13.63;;;9.30;;
44746;SDS011;30472;49.490;10.972;2023-10-09T02:12:47;11.80;;;9.17;;
44746;SDS011;30472;49.490;10.972;2023-10-09T02:15:22;16.13;;;9.97;;
44746;SDS011;30472;49.490;10.972;2023-10-09T02:18:11;14.57;;;10.40;;
44746;SDS011;30472;49.490;10.972;2023-10-09T02:20:44;15.63;;;9.73;;
44746;SDS011;30472;49.490;10.972;2023-10-09T02:23:11;14.43;;;9.33;;
44746;SDS011;30472;49.490;10.972;2023-10-09T02:25:45;13.80;;;9.50;;
44746;SDS011;30472;49.490;10.972;2023-10-09T02:28:12;18.67;;;9.77;;
44746;SDS011;30472;49.490;10.972;2023-10-09T02:30:43;15.83;;;10.07;;
44746;SDS011;30472;49.490;10.972;2023-10-09T02:33:12;19.03;;;10.23;;
44746;SDS011;30472;49.490;10.972;2023-10-09T02:35:43;17.50;;;10.13;;
44746;SDS011;30472;49.490;10.972;2023-10-09T02:38:09;16.93;;;9.50;;
44746;SDS011;30472;49.490;10.972;2023-10-09T02:40:39;16.20;;;9.40;;
44746;SDS011;30472;49.490;10.972;2023-10-09T02:43:26;14.43;;;9.20;;
44746;SDS011;30472;49.490;10.972;2023-10-09T02:46:14;14.10;;;10.47;;
44746;SDS011;30472;49.490;10.972;2023-10-09T02:48:54;16.93;;;10.83;;
44746;SDS011;30472;49.490;10.972;2023-10-09T02:51:25;16.90;;;9.37;;
44746;SDS011;30472;49.490;10.972;2023-10-09T02:53:51;13.13;;;9.63;;
44746;SDS011;30472;49.490;10.972;2023-10-09T02:56:17;12.90;;;8.83;;
44746;SDS011;30472;49.490;10.972;2023-10-09T02:58:50;13.97;;;9.10;;
44746;SDS011;30472;49.490;10.972;2023-10-09T03:01:16;13.23;;;9.57;;
44746;SDS011;30472;49.490;10.972;2023-10-09T03:03:42;20.27;;;11.57;;
44746;SDS011;30472;49.490;10.972;2023-10-09T03:06:12;15.33;;;9.67;;
44746;SDS011;30472;49.490;10.972;2023-10-09T03:08:48;16.60;;;10.17;;
44746;SDS011;30472;49.490;10.972;2023-10-09T03:11:13;12.43;;;9.10;;
44746;SDS011;30472;49.490;10.972;2023-10-09T03:13:42;15.70;;;9.43;;
44746;SDS011;30472;49.490;10.972;2023-10-09T03:16:09;12.53;;;9.57;;
44746;SDS011;30472;49.490;10.972;2023-10-09T03:18:40;13.20;;;9.67;;
44746;SDS011;30472;49.490;10.972;2023-10-09T03:21:06;17.60;;;9.07;;
44746;SDS011;30472;49.490;10.972;2023-10-09T03:23:33;17.97;;;8.97;;
44746;SDS011;30472;49.490;10.972;2023-10-09T03:25:59;13.60;;;9.43;;
44746;SDS011;30472;49.490;10.972;2023-10-09T03:28:24;15.03;;;9.73;;
44746;SDS011;30472;49.490;10.972;2023-10-09T03:30:51;15.70;;;9.80;;
44746;SDS011;30472;49.490;10.972;2023-10-09T03:33:18;14.70;;;10.17;;
44746;SDS011;30472;49.490;10.972;2023-10-09T03:35:44;11.50;;;9.60;;
44746;SDS011;30472;49.490;10.972;2023-10-09T03:38:09;14.90;;;9.70;;
44746;SDS011;30472;49.490;10.972;2023-10-09T03:40:42;12.73;;;8.57;;
44746;SDS011;30472;49.490;10.972;2023-10-09T03:43:08;15.00;;;8.97;;
44746;SDS011;30472;49.490;10.972;2023-10-09T03:45:36;21.33;;;10.13;;
44746;SDS011;30472;49.490;10.972;2023-10-09T03:48:03;11.10;;;9.10;;
44746;SDS011;30472;49.490;10.972;2023-10-09T03:50:48;18.00;;;8.60;;
44746;SDS011;30472;49.490;10.972;2023-10-09T03:53:20;18.83;;;10.33;;
44746;SDS011;30472;49.490;10.972;2023-10-09T03:55:46;14.47;;;10.03;;
44746;SDS011;30472;49.490;10.972;2023-10-09T03:58:11;16.00;;;10.07;;
44746;SDS011;30472;49.490;10.972;2023-10-09T04:00:37;15.70;;;9.87;;
44746;SDS011;30472;49.490;10.972;2023-10-09T04:03:09;18.97;;;10.23;;
44746;SDS011;30472;49.490;10.972;2023-10-09T04:05:36;15.47;;;10.00;;
44746;SDS011;30472;49.490;10.972;2023-10-09T04:08:07;17.20;;;9.83;;
44746;SDS011;30472;49.490;10.972;2023-10-09T04:10:37;15.70;;;9.70;;
44746;SDS011;30472;49.490;10.972;2023-10-09T04:13:15;13.60;;;10.30;;
44746;SDS011;30472;49.490;10.972;2023-10-09T04:15:47;18.00;;;11.17;;
44746;SDS011;30472;49.490;10.972;2023-10-09T04:18:14;17.27;;;11.50;;
44746;SDS011;30472;49.490;10.972;2023-10-09T04:20:41;20.33;;;12.73;;
44746;SDS011;30472;49.490;10.972;2023-10-09T04:23:32;18.07;;;11.93;;
44746;SDS011;30472;49.490;10.972;2023-10-09T04:26:21;14.97;;;11.40;;
44746;SDS011;30472;49.490;10.972;2023-10-09T04:28:50;17.47;;;10.63;;
44746;SDS011;30472;49.490;10.972;2023-10-09T04:31:18;17.17;;;11.30;;
44746;SDS011;30472;49.490;10.972;2023-10-09T04:33:45;13.20;;;10.77;;
44746;SDS011;30472;49.490;10.972;2023-10-09T04:36:31;17.53;;;11.47;;
44746;SDS011;30472;49.490;10.972;2023-10-09T04:39:11;17.60;;;11.50;;
44746;SDS011;30472;49.490;10.972;2023-10-09T04:41:36;16.63;;;12.83;;
44746;SDS011;30472;49.490;10.972;2023-10-09T04:44:11;18.97;;;12.80;;
44746;SDS011;30472;49.490;10.972;2023-10-09T04:46:54;17.87;;;11.43;;
44746;SDS011;30472;49.490;10.972;2023-10-09T04:49:35;16.83;;;11.23;;
44746;SDS011;30472;49.490;10.972;2023-10-09T04:52:22;16.00;;;11.13;;
44746;SDS011;30472;49.490;10.972;2023-10-09T04:54:50;19.30;;;11.90;;
44746;SDS011;30472;49.490;10.972;2023-10-09T04:57:37;19.97;;;12.37;;
44746;SDS011;30472;49.490;10.972;2023-10-09T05:00:07;23.20;;;13.10;;
44746;SDS011;30472;49.490;10.972;2023-10-09T05:02:53;19.00;;;12.60;;
44746;SDS011;30472;49.490;10.972;2023-10-09T05:05:27;23.37;;;13.47;;
44746;SDS011;30472;49.490;10.972;2023-10-09T05:08:06;21.00;;;13.47;;
44746;SDS011;30472;49.490;10.972;2023-10-09T05:10:52;16.20;;;11.77;;
44746;SDS011;30472;49.490;10.972;2023-10-09T05:13:32;17.30;;;11.90;;
44746;SDS011;30472;49.490;10.972;2023-10-09T05:16:14;18.20;;;12.00;;
44746;SDS011;30472;49.490;10.972;2023-10-09T05:18:44;23.03;;;13.20;;
44746;SDS011;30472;49.490;10.972;2023-10-09T05:21:21;17.73;;;12.30;;
44746;SDS011;30472;49.490;10.972;2023-10-09T05:23:56;23.43;;;12.33;;
44746;SDS011;30472;49.490;10.972;2023-10-09T05:26:41;21.23;;;12.70;;
44746;SDS011;30472;49.490;10.972;2023-10-09T05:31:57;19.47;;;12.53;;
44746;SDS011;30472;49.490;10.972;2023-10-09T05:34:46;20.87;;;13.33;;
44746;SDS011;30472;49.490;10.972;2023-10-09T05:37:32;19.60;;;13.60;;
44746;SDS011;30472;49.490;10.972;2023-10-09T05:40:02;23.53;;;14.80;;
44746;SDS011;30472;49.490;10.972;2023-10-09T05:42:41;25.87;;;14.97;;
44746;SDS011;30472;49.490;10.972;2023-10-09T05:45:10;21.20;;;13.90;;
44746;SDS011;30472;49.490;10.972;2023-10-09T05:47:43;21.63;;;13.37;;
44746;SDS011;30472;49.490;10.972;2023-10-09T05:50:19;17.40;;;12.73;;
44746;SDS011;30472;49.490;10.972;2023-10-09T05:52:59;18.67;;;12.37;;
44746;SDS011;30472;49.490;10.972;2023-10-09T05:55:28;19.73;;;13.00;;
44746;SDS011;30472;49.490;10.972;2023-10-09T05:58:33;23.20;;;13.67;;
44746;SDS011;30472;49.490;10.972;2023-10-09T06:01:17;17.27;;;12.30;;
44746;SDS011;30472;49.490;10.972;2023-10-09T06:04:01;20.33;;;11.97;;
44746;SDS011;30472;49.490;10.972;2023-10-09T06:06:40;22.17;;;14.33;;
44746;SDS011;30472;49.490;10.972;2023-10-09T06:09:20;25.33;;;13.13;;
44746;SDS011;30472;49.490;10.972;2023-10-09T06:11:47;19.57;;;13.23;;
44746;SDS011;30472;49.490;10.972;2023-10-09T06:14:14;20.43;;;13.10;;
44746;SDS011;30472;49.490;10.972;2023-10-09T06:16:50;19.07;;;11.23;;
44746;SDS011;30472;49.490;10.972;2023-10-09T06:19:22;16.47;;;10.40;;
44746;SDS011;30472;49.490;10.972;2023-10-09T06:21:48;17.63;;;10.90;;
44746;SDS011;30472;49.490;10.972;2023-10-09T06:24:20;16.07;;;9.70;;
44746;SDS011;30472;49.490;10.972;2023-10-09T06:26:48;18.50;;;10.53;;
44746;SDS011;30472;49.490;10.972;2023-10-09T06:29:23;18.40;;;9.90;;
44746;SDS011;30472;49.490;10.972;2023-10-09T06:32:08;14.10;;;9.30;;
44746;SDS011;30472;49.490;10.972;2023-10-09T06:34:50;15.10;;;9.70;;
44746;SDS011;30472;49.490;10.972;2023-10-09T06:37:20;15.97;;;9.03;;
44746;SDS011;30472;49.490;10.972;2023-10-09T06:39:48;15.03;;;9.30;;
44746;SDS011;30472;49.490;10.972;2023-10-09T06:42:23;16.07;;;9.53;;
44746;SDS011;30472;49.490;10.972;2023-10-09T06:45:06;13.70;;;8.10;;
44746;SDS011;30472;49.490;10.972;2023-10-09T06:47:42;14.10;;;8.53;;
44746;SDS011;30472;49.490;10.972;2023-10-09T06:50:20;14.13;;;8.23;;
44746;SDS011;30472;49.490;10.972;2023-10-09T06:52:49;11.13;;;8.70;;
44746;SDS011;30472;49.490;10.972;2023-10-09T06:55:40;13.57;;;8.33;;
44746;SDS011;30472;49.490;10.972;2023-10-09T06:58:18;14.43;;;8.50;;
44746;SDS011;30472;49.490;10.972;2023-10-09T07:00:54;13.17;;;8.47;;
44746;SDS011;30472;49.490;10.972;2023-10-09T07:03:23;12.57;;;7.70;;
44746;SDS011;30472;49.490;10.972;2023-10-09T07:06:04;16.10;;;7.93;;
44746;SDS011;30472;49.490;10.972;2023-10-09T07:08:35;20.13;;;8.30;;
44746;SDS011;30472;49.490;10.972;2023-10-09T07:11:09;10.10;;;6.63;;
44746;SDS011;30472;49.490;10.972;2023-10-09T07:16:33;11.30;;;7.50;;
44746;SDS011;30472;49.490;10.972;2023-10-09T07:19:22;14.87;;;7.80;;
44746;SDS011;30472;49.490;10.972;2023-10-09T07:22:02;12.00;;;7.10;;
44746;SDS011;30472;49.490;10.972;2023-10-09T07:24:31;13.87;;;7.13;;
44746;SDS011;30472;49.490;10.972;2023-10-09T07:27:08;13.87;;;7.00;;
44746;SDS011;30472;49.490;10.972;2023-10-09T07:29:37;12.63;;;6.57;;
44746;SDS011;30472;49.490;10.972;2023-10-09T07:32:13;12.27;;;6.73;;
44746;SDS011;30472;49.490;10.972;2023-10-09T07:34:45;13.03;;;6.20;;
44746;SDS011;30472;49.490;10.972;2023-10-09T07:37:24;12.27;;;5.93;;
44746;SDS011;30472;49.490;10.972;2023-10-09T07:39:55;15.20;;;6.27;;
44746;SDS011;30472;49.490;10.972;2023-10-09T07:42:31;11.23;;;5.73;;
44746;SDS011;30472;49.490;10.972;2023-10-09T07:45:06;12.50;;;5.82;;
44746;SDS011;30472;49.490;10.972;2023-10-09T07:47:48;8.40;;;5.13;;
44746;SDS011;30472;49.490;10.972;2023-10-09T07:50:34;10.63;;;5.13;;
44746;SDS011;30472;49.490;10.972;2023-10-09T07:53:12;7.88;;;5.45;;
44746;SDS011;30472;49.490;10.972;2023-10-09T07:55:43;14.25;;;5.70;;
44746;SDS011;30472;49.490;10.972;2023-10-09T07:58:31;12.38;;;6.28;;
44746;SDS011;30472;49.490;10.972;2023-10-09T08:00:58;13.05;;;6.50;;
44746;SDS011;30472;49.490;10.972;2023-10-09T08:03:40;13.90;;;5.70;;
44746;SDS011;30472;49.490;10.972;2023-10-09T08:06:10;11.95;;;5.30;;
44746;SDS011;30472;49.490;10.972;2023-10-09T08:09:03;9.95;;;5.75;;
44746;SDS011;30472;49.490;10.972;2023-10-09T08:11:37;13.82;;;6.22;;
44746;SDS011;30472;49.490;10.972;2023-10-09T08:14:09;12.50;;;5.95;;
44746;SDS011;30472;49.490;10.972;2023-10-09T08:17:07;9.50;;;6.15;;
44746;SDS011;30472;49.490;10.972;2023-10-09T08:19:46;11.52;;;6.13;;
44746;SDS011;30472;49.490;10.972;2023-10-09T08:22:26;12.73;;;5.95;;
44746;SDS011;30472;49.490;10.972;2023-10-09T08:24:53;8.95;;;5.22;;
44746;SDS011;30472;49.490;10.972;2023-10-09T08:27:25;20.33;;;6.47;;
44746;SDS011;30472;49.490;10.972;2023-10-09T08:32:41;16.73;;;6.63;;
44746;SDS011;30472;49.490;10.972;2023-10-09T08:35:08;12.35;;;6.28;;
44746;SDS011;30472;49.490;10.972;2023-10-09T08:37:53;22.25;;;6.80;;
44746;SDS011;30472;49.490;10.972;2023-10-09T08:40:26;9.13;;;5.57;;
44746;SDS011;30472;49.490;10.972;2023-10-09T08:43:06;16.83;;;6.32;;
44746;SDS011;30472;49.490;10.972;2023-10-09T08:45:39;12.30;;;5.40;;
44746;SDS011;30472;49.490;10.972;2023-10-09T08:48:10;15.77;;;5.90;;
44746;SDS011;30472;49.490;10.972;2023-10-09T08:50:45;13.70;;;5.28;;
44746;SDS011;30472;49.490;10.972;2023-10-09T08:53:13;11.98;;;5.72;;
44746;SDS011;30472;49.490;10.972;2023-10-09T08:55:41;15.05;;;6.15;;
44746;SDS011;30472;49.490;10.972;2023-10-09T08:58:08;16.02;;;5.85;;
44746;SDS011;30472;49.490;10.972;2023-10-09T09:00:50;12.18;;;5.15;;
44746;SDS011;30472;49.490;10.972;2023-10-09T09:03:17;14.93;;;5.63;;
44746;SDS011;30472;49.490;10.972;2023-10-09T09:05:46;11.52;;;5.30;;
44746;SDS011;30472;49.490;10.972;2023-10-09T09:08:24;8.00;;;4.88;;
44746;SDS011;30472;49.490;10.972;2023-10-09T09:16:12;14.70;;;5.00;;
44746;SDS011;30472;49.490;10.972;2023-10-09T09:18:52;11.20;;;4.82;;
44746;SDS011;30472;49.490;10.972;2023-10-09T09:21:42;11.05;;;4.80;;
44746;SDS011;30472;49.490;10.972;2023-10-09T09:24:13;10.40;;;4.40;;
44746;SDS011;30472;49.490;10.972;2023-10-09T09:26:48;10.20;;;4.05;;
44746;SDS011;30472;49.490;10.972;2023-10-09T09:29:24;9.23;;;3.70;;
44746;SDS011;30472;49.490;10.972;2023-10-09T09:32:02;7.78;;;3.80;;
44746;SDS011;30472;49.490;10.972;2023-10-09T09:34:45;11.85;;;4.20;;
44746;SDS011;30472;49.490;10.972;2023-10-09T09:37:20;11.07;;;4.40;;
44746;SDS011;30472;49.490;10.972;2023-10-09T09:40:00;13.65;;;4.28;;
44746;SDS011;30472;49.490;10.972;2023-10-09T09:42:39;13.63;;;4.78;;
44746;SDS011;30472;49.490;10.972;2023-10-09T09:45:13;9.68;;;4.88;;
44746;SDS011;30472;49.490;10.972;2023-10-09T09:47:39;12.88;;;4.97;;
44746;SDS011;30472;49.490;10.972;2023-10-09T09:50:12;13.82;;;5.28;;
44746;SDS011;30472;49.490;10.972;2023-10-09T09:52:49;15.38;;;5.05;;
44746;SDS011;30472;49.490;10.972;2023-10-09T09:55:21;9.88;;;4.35;;
44746;SDS011;30472;49.490;10.972;2023-10-09T09:57:55;9.05;;;4.90;;
44746;SDS011;30472;49.490;10.972;2023-10-09T10:00:25;11.18;;;4.68;;
44746;SDS011;30472;49.490;10.972;2023-10-09T10:03:03;10.50;;;5.13;;
44746;SDS011;30472;49.490;10.972;2023-10-09T10:05:33;15.52;;;5.05;;
44746;SDS011;30472;49.490;10.972;2023-10-09T10:08:00;11.15;;;4.47;;
44746;SDS011;30472;49.490;10.972;2023-10-09T10:16:13;13.27;;;4.68;;
44746;SDS011;30472;49.490;10.972;2023-10-09T10:18:53;8.27;;;4.68;;
44746;SDS011;30472;49.490;10.972;2023-10-09T10:21:25;14.15;;;4.30;;
44746;SDS011;30472;49.490;10.972;2023-10-09T10:24:02;7.95;;;4.15;;
44746;SDS011;30472;49.490;10.972;2023-10-09T10:26:31;10.82;;;4.22;;
44746;SDS011;30472;49.490;10.972;2023-10-09T10:32:00;14.27;;;4.35;;
44746;SDS011;30472;49.490;10.972;2023-10-09T10:40:09;15.20;;;4.60;;
44746;SDS011;30472;49.490;10.972;2023-10-09T10:43:01;13.35;;;4.10;;
44746;SDS011;30472;49.490;10.972;2023-10-09T10:45:44;12.38;;;3.78;;
44746;SDS011;30472;49.490;10.972;2023-10-09T10:48:10;14.85;;;4.43;;
44746;SDS011;30472;49.490;10.972;2023-10-09T10:51:02;12.40;;;3.88;;
44746;SDS011;30472;49.490;10.972;2023-10-09T10:53:31;8.77;;;4.22;;
44746;SDS011;30472;49.490;10.972;2023-10-09T10:56:17;13.98;;;4.53;;
44746;SDS011;30472;49.490;10.972;2023-10-09T10:58:52;9.60;;;3.85;;
44746;SDS011;30472;49.490;10.972;2023-10-09T11:01:31;12.18;;;4.07;;
44746;SDS011;30472;49.490;10.972;2023-10-09T11:04:19;12.57;;;3.83;;
44746;SDS011;30472;49.490;10.972;2023-10-09T11:06:55;10.25;;;3.63;;
44746;SDS011;30472;49.490;10.972;2023-10-09T11:09:57;12.10;;;4.03;;
44746;SDS011;30472;49.490;10.972;2023-10-09T11:12:46;17.33;;;4.40;;
44746;SDS011;30472;49.490;10.972;2023-10-09T11:15:17;10.25;;;3.90;;
44746;SDS011;30472;49.490;10.972;2023-10-09T11:20:41;8.43;;;4.00;;
44746;SDS011;30472;49.490;10.972;2023-10-09T11:23:22;12.60;;;4.07;;
44746;SDS011;30472;49.490;10.972;2023-10-09T11:26:00;10.52;;;3.67;;
44746;SDS011;30472;49.490;10.972;2023-10-09T11:28:46;17.25;;;4.00;;
44746;SDS011;30472;49.490;10.972;2023-10-09T11:31:38;9.15;;;3.67;;
44746;SDS011;30472;49.490;10.972;2023-10-09T11:34:08;13.93;;;4.40;;
44746;SDS011;30472;49.490;10.972;2023-10-09T11:37:01;17.63;;;4.68;;
44746;SDS011;30472;49.490;10.972;2023-10-09T11:39:29;13.45;;;4.65;;
44746;SDS011;30472;49.490;10.972;2023-10-09T11:44:40;11.07;;;3.90;;
44746;SDS011;30472;49.490;10.972;2023-10-09T11:47:11;12.70;;;4.30;;
44746;SDS011;30472;49.490;10.972;2023-10-09T11:52:54;12.07;;;4.18;;
44746;SDS011;30472;49.490;10.972;2023-10-09T11:55:44;10.98;;;4.40;;
44746;SDS011;30472;49.490;10.972;2023-10-09T11:58:17;13.75;;;4.10;;
44746;SDS011;30472;49.490;10.972;2023-10-09T12:03:27;13.18;;;4.28;;
44746;SDS011;30472;49.490;10.972;2023-10-09T12:05:58;16.77;;;5.13;;
44746;SDS011;30472;49.490;10.972;2023-10-09T12:08:33;11.65;;;4.35;;
44746;SDS011;30472;49.490;10.972;2023-10-09T12:10:59;13.30;;;3.38;;
44746;SDS011;30472;49.490;10.972;2023-10-09T12:13:28;12.55;;;4.05;;
44746;SDS011;30472;49.490;10.972;2023-10-09T12:15:54;16.52;;;4.85;;
44746;SDS011;30472;49.490;10.972;2023-10-09T12:18:19;11.82;;;3.88;;
44746;SDS011;30472;49.490;10.972;2023-10-09T12:20:46;16.88;;;4.68;;
44746;SDS011;30472;49.490;10.972;2023-10-09T12:23:21;15.25;;;4.13;;
44746;SDS011;30472;49.490;10.972;2023-10-09T12:25:48;9.50;;;4.10;;
44746;SDS011;30472;49.490;10.972;2023-10-09T12:28:14;12.90;;;3.92;;
44746;SDS011;30472;49.490;10.972;2023-10-09T12:30:45;9.75;;;4.07;;
44746;SDS011;30472;49.490;10.972;2023-10-09T12:33:15;10.60;;;4.93;;
44746;SDS011;30472;49.490;10.972;2023-10-09T12:35:41;14.13;;;4.65;;
44746;SDS011;30472;49.490;10.972;2023-10-09T12:38:10;14.68;;;4.43;;
44746;SDS011;30472;49.490;10.972;2023-10-09T12:40:37;11.85;;;3.80;;
44746;SDS011;30472;49.490;10.972;2023-10-09T12:43:06;11.35;;;4.15;;
44746;SDS011;30472;49.490;10.972;2023-10-09T12:45:40;13.80;;;3.97;;
44746;SDS011;30472;49.490;10.972;2023-10-09T12:48:07;14.07;;;4.00;;
44746;SDS011;30472;49.490;10.972;2023-10-09T12:50:35;12.15;;;4.75;;
44746;SDS011;30472;49.490;10.972;2023-10-09T12:53:06;11.75;;;4.78;;
44746;SDS011;30472;49.490;10.972;2023-10-09T12:55:39;14.48;;;4.40;;
44746;SDS011;30472;49.490;10.972;2023-10-09T12:58:06;16.95;;;4.80;;
44746;SDS011;30472;49.490;10.972;2023-10-09T13:00:36;10.00;;;4.07;;
44746;SDS011;30472;49.490;10.972;2023-10-09T13:03:07;14.90;;;4.25;;
44746;SDS011;30472;49.490;10.972;2023-10-09T13:05:45;13.77;;;4.57;;
44746;SDS011;30472;49.490;10.972;2023-10-09T13:08:21;19.40;;;4.50;;
44746;SDS011;30472;49.490;10.972;2023-10-09T13:10:49;14.15;;;4.07;;
44746;SDS011;30472;49.490;10.972;2023-10-09T13:13:28;12.35;;;4.40;;
44746;SDS011;30472;49.490;10.972;2023-10-09T13:16:04;13.20;;;4.03;;
44746;SDS011;30472;49.490;10.972;2023-10-09T13:18:53;10.77;;;4.25;;
44746;SDS011;30472;49.490;10.972;2023-10-09T13:21:20;16.00;;;4.60;;
44746;SDS011;30472;49.490;10.972;2023-10-09T13:23:48;10.80;;;4.15;;
44746;SDS011;30472;49.490;10.972;2023-10-09T13:26:18;9.25;;;3.83;;
44746;SDS011;30472;49.490;10.972;2023-10-09T13:28:49;13.95;;;4.20;;
44746;SDS011;30472;49.490;10.972;2023-10-09T13:31:19;11.45;;;4.43;;
44746;SDS011;30472;49.490;10.972;2023-10-09T13:33:46;11.38;;;4.18;;
44746;SDS011;30472;49.490;10.972;2023-10-09T13:36:13;9.80;;;3.65;;
44746;SDS011;30472;49.490;10.972;2023-10-09T13:38:54;9.48;;;4.40;;
44746;SDS011;30472;49.490;10.972;2023-10-09T13:41:21;14.15;;;4.10;;
44746;SDS011;30472;49.490;10.972;2023-10-09T13:43:47;13.23;;;4.07;;
44746;SDS011;30472;49.490;10.972;2023-10-09T13:46:16;14.27;;;4.20;;
44746;SDS011;30472;49.490;10.972;2023-10-09T13:48:42;9.00;;;3.97;;
44746;SDS011;30472;49.490;10.972;2023-10-09T13:51:10;9.52;;;4.18;;
44746;SDS011;30472;49.490;10.972;2023-10-09T13:53:42;8.68;;;3.85;;
44746;SDS011;30472;49.490;10.972;2023-10-09T13:56:12;15.73;;;3.88;;
44746;SDS011;30472;49.490;10.972;2023-10-09T13:58:52;9.70;;;4.70;;
44746;SDS011;30472;49.490;10.972;2023-10-09T14:01:20;9.00;;;3.92;;
44746;SDS011;30472;49.490;10.972;2023-10-09T14:03:55;10.80;;;4.43;;
44746;SDS011;30472;49.490;10.972;2023-10-09T14:06:25;8.45;;;4.07;;
44746;SDS011;30472;49.490;10.972;2023-10-09T14:08:58;11.85;;;3.83;;
44746;SDS011;30472;49.490;10.972;2023-10-09T14:11:25;11.88;;;4.35;;
44746;SDS011;30472;49.490;10.972;2023-10-09T14:13:53;9.73;;;4.65;;
44746;SDS011;30472;49.490;10.972;2023-10-09T14:16:19;9.80;;;4.25;;
44746;SDS011;30472;49.490;10.972;2023-10-09T14:18:56;8.90;;;4.10;;
44746;SDS011;30472;49.490;10.972;2023-10-09T14:21:28;14.43;;;3.78;;
44746;SDS011;30472;49.490;10.972;2023-10-09T14:24:03;7.88;;;4.00;;
44746;SDS011;30472;49.490;10.972;2023-10-09T14:26:41;7.53;;;4.15;;
44746;SDS011;30472;49.490;10.972;2023-10-09T14:29:10;8.85;;;4.38;;
44746;SDS011;30472;49.490;10.972;2023-10-09T14:31:41;7.28;;;3.88;;
44746;SDS011;30472;49.490;10.972;2023-10-09T14:34:14;9.63;;;3.72;;
44746;SDS011;30472;49.490;10.972;2023-10-09T14:36:40;11.05;;;4.35;;
44746;SDS011;30472;49.490;10.972;2023-10-09T14:39:09;8.65;;;4.20;;
44746;SDS011;30472;49.490;10.972;2023-10-09T14:41:38;12.35;;;4.30;;
44746;SDS011;30472;49.490;10.972;2023-10-09T14:44:05;9.65;;;3.97;;
44746;SDS011;30472;49.490;10.972;2023-10-09T14:46:31;16.67;;;4.45;;
44746;SDS011;30472;49.490;10.972;2023-10-09T14:48:56;10.73;;;4.32;;
